sensor_id;sensor_type;location;lat;lon;timestamp;temperature;humidity
1055;DHT22;516;51.482;7.120;2023-03-14T00:02:01;11.60;99.90
1055;DHT22;516;51.482;7.120;2023-03-14T00:07:49;11.50;99.90
1055;DHT22;516;51.482;7.120;2023-03-14T00:13:37;11.40;99.90
1055;DHT22;516;51.482;7.120;2023-03-14T00:19:25;11.40;99.90
1055;DHT22;516;51.482;7.120;2023-03-14T00:25:12;11.40;99.90
1055;DHT22;516;51.482;7.120;2023-03-14T00:31:08;11.40;99.90
1055;DHT22;516;51.482;7.120;2023-03-14T00:36:45;11.40;99.90
1055;DHT22;516;51.482;7.120;2023-03-14T00:42:32;11.60;99.90
1055;DHT22;516;51.482;7.120;2023-03-14T00:48:20;11.60;99.90
1055;DHT22;516;51.482;7.120;2023-03-14T00:54:07;11.60;99.90
1055;DHT22;516;51.482;7.120;2023-03-14T00:59:56;10.00;99.90
1055;DHT22;516;51.482;7.120;2023-03-14T01:05:43;9.70;99.90
1055;DHT22;516;51.482;7.120;2023-03-14T01:11:33;9.50;99.90
1055;DHT22;516;51.482;7.120;2023-03-14T01:17:21;9.40;99.90
1055;DHT22;516;51.482;7.120;2023-03-14T01:23:10;9.40;99.90
1055;DHT22;516;51.482;7.120;2023-03-14T01:28:58;9.30;99.90
1055;DHT22;516;51.482;7.120;2023-03-14T01:44:56;9.00;99.90
1055;DHT22;516;51.482;7.120;2023-03-14T01:51:04;9.20;99.90
1055;DHT22;516;51.482;7.120;2023-03-14T01:57:01;9.30;99.90
1055;DHT22;516;51.482;7.120;2023-03-14T02:03:14;9.30;99.90
1055;DHT22;516;51.482;7.120;2023-03-14T02:09:03;9.30;99.90
1055;DHT22;516;51.482;7.120;2023-03-14T02:14:51;9.30;99.90
1055;DHT22;516;51.482;7.120;2023-03-14T02:27:15;9.50;99.90
1055;DHT22;516;51.482;7.120;2023-03-14T02:33:06;9.50;99.90
1055;DHT22;516;51.482;7.120;2023-03-14T02:42:17;9.40;99.90
1055;DHT22;516;51.482;7.120;2023-03-14T02:48:25;9.60;99.90
1055;DHT22;516;51.482;7.120;2023-03-14T02:54:41;9.60;99.90
1055;DHT22;516;51.482;7.120;2023-03-14T03:00:28;9.70;99.90
1055;DHT22;516;51.482;7.120;2023-03-14T03:06:17;9.70;99.90
1055;DHT22;516;51.482;7.120;2023-03-14T03:12:05;9.70;99.90
1055;DHT22;516;51.482;7.120;2023-03-14T03:17:51;9.60;99.90
1055;DHT22;516;51.482;7.120;2023-03-14T03:23:39;9.50;99.90
1055;DHT22;516;51.482;7.120;2023-03-14T03:29:26;9.60;99.90
1055;DHT22;516;51.482;7.120;2023-03-14T03:35:14;9.60;99.90
1055;DHT22;516;51.482;7.120;2023-03-14T03:44:29;9.40;99.90
1055;DHT22;516;51.482;7.120;2023-03-14T03:50:17;9.50;99.90
1055;DHT22;516;51.482;7.120;2023-03-14T03:56:05;9.80;99.90
1055;DHT22;516;51.482;7.120;2023-03-14T04:01:53;9.50;99.90
1055;DHT22;516;51.482;7.120;2023-03-14T04:07:40;9.40;99.90
1055;DHT22;516;51.482;7.120;2023-03-14T04:13:28;9.30;99.90
1055;DHT22;516;51.482;7.120;2023-03-14T04:19:16;9.30;99.90
1055;DHT22;516;51.482;7.120;2023-03-14T04:25:05;9.40;99.90
1055;DHT22;516;51.482;7.120;2023-03-14T04:30:53;9.40;99.90
1055;DHT22;516;51.482;7.120;2023-03-14T04:36:41;9.20;99.90
1055;DHT22;516;51.482;7.120;2023-03-14T04:45:50;8.90;99.90
1055;DHT22;516;51.482;7.120;2023-03-14T04:51:38;8.50;99.90
1055;DHT22;516;51.482;7.120;2023-03-14T04:57:26;8.40;99.90
1055;DHT22;516;51.482;7.120;2023-03-14T05:03:18;8.30;99.90
1055;DHT22;516;51.482;7.120;2023-03-14T05:09:06;8.20;99.90
1055;DHT22;516;51.482;7.120;2023-03-14T05:14:53;8.10;99.90
1055;DHT22;516;51.482;7.120;2023-03-14T05:20:23;8.10;99.90
1055;DHT22;516;51.482;7.120;2023-03-14T05:26:10;8.20;99.90
1055;DHT22;516;51.482;7.120;2023-03-14T05:31:58;8.10;99.90
1055;DHT22;516;51.482;7.120;2023-03-14T05:37:45;8.10;99.90
1055;DHT22;516;51.482;7.120;2023-03-14T05:43:33;8.10;99.90
1055;DHT22;516;51.482;7.120;2023-03-14T05:49:21;8.10;99.90
1055;DHT22;516;51.482;7.120;2023-03-14T05:55:09;8.10;99.90
1055;DHT22;516;51.482;7.120;2023-03-14T06:00:57;8.20;99.90
1055;DHT22;516;51.482;7.120;2023-03-14T06:06:44;8.20;99.90
1055;DHT22;516;51.482;7.120;2023-03-14T06:12:32;8.20;99.90
1055;DHT22;516;51.482;7.120;2023-03-14T06:18:20;8.40;99.90
1055;DHT22;516;51.482;7.120;2023-03-14T06:24:08;8.60;99.90
1055;DHT22;516;51.482;7.120;2023-03-14T06:29:56;8.60;99.90
1055;DHT22;516;51.482;7.120;2023-03-14T06:35:44;8.80;99.90
1055;DHT22;516;51.482;7.120;2023-03-14T06:51:37;9.00;99.90
1055;DHT22;516;51.482;7.120;2023-03-14T06:57:25;9.10;99.90
1055;DHT22;516;51.482;7.120;2023-03-14T07:03:13;9.10;99.90
1055;DHT22;516;51.482;7.120;2023-03-14T07:09:03;9.20;99.90
1055;DHT22;516;51.482;7.120;2023-03-14T07:14:50;9.30;99.90
1055;DHT22;516;51.482;7.120;2023-03-14T07:20:38;9.40;99.90
1055;DHT22;516;51.482;7.120;2023-03-14T07:26:26;9.40;99.90
1055;DHT22;516;51.482;7.120;2023-03-14T07:32:14;9.60;99.90
1055;DHT22;516;51.482;7.120;2023-03-14T07:38:02;9.70;99.90
1055;DHT22;516;51.482;7.120;2023-03-14T07:44:00;9.80;99.90
1055;DHT22;516;51.482;7.120;2023-03-14T07:49:47;9.90;99.90
1055;DHT22;516;51.482;7.120;2023-03-14T07:55:34;9.80;99.90
1055;DHT22;516;51.482;7.120;2023-03-14T08:01:22;9.80;99.90
1055;DHT22;516;51.482;7.120;2023-03-14T08:07:09;9.90;99.90
1055;DHT22;516;51.482;7.120;2023-03-14T08:12:57;9.90;99.90
1055;DHT22;516;51.482;7.120;2023-03-14T08:18:45;9.90;99.90
1055;DHT22;516;51.482;7.120;2023-03-14T08:24:33;10.10;99.90
1055;DHT22;516;51.482;7.120;2023-03-14T08:30:21;10.00;99.90
1055;DHT22;516;51.482;7.120;2023-03-14T08:36:10;9.90;99.90
1055;DHT22;516;51.482;7.120;2023-03-14T08:52:13;11.30;99.90
1055;DHT22;516;51.482;7.120;2023-03-14T08:57:46;10.80;99.90
1055;DHT22;516;51.482;7.120;2023-03-14T09:03:33;10.60;99.90
1055;DHT22;516;51.482;7.120;2023-03-14T09:09:20;10.30;99.90
1055;DHT22;516;51.482;7.120;2023-03-14T09:15:08;10.30;99.90
1055;DHT22;516;51.482;7.120;2023-03-14T09:20:56;10.10;99.90
1055;DHT22;516;51.482;7.120;2023-03-14T09:26:43;10.00;99.90
1055;DHT22;516;51.482;7.120;2023-03-14T09:32:31;10.00;99.90
1055;DHT22;516;51.482;7.120;2023-03-14T09:38:19;8.60;99.90
1055;DHT22;516;51.482;7.120;2023-03-14T09:41:16;8.60;99.90
1055;DHT22;516;51.482;7.120;2023-03-14T09:43:44;8.40;99.90
1055;DHT22;516;51.482;7.120;2023-03-14T09:49:39;8.30;99.90
1055;DHT22;516;51.482;7.120;2023-03-14T09:55:27;8.20;99.90
1055;DHT22;516;51.482;7.120;2023-03-14T10:01:16;8.40;99.90
1055;DHT22;516;51.482;7.120;2023-03-14T10:07:12;8.50;99.90
1055;DHT22;516;51.482;7.120;2023-03-14T10:19:50;8.30;99.90
1055;DHT22;516;51.482;7.120;2023-03-14T10:26:14;8.30;99.90
1055;DHT22;516;51.482;7.120;2023-03-14T10:32:10;8.50;99.90
1055;DHT22;516;51.482;7.120;2023-03-14T10:38:29;8.10;99.90
1055;DHT22;516;51.482;7.120;2023-03-14T10:41:24;8.10;99.90
1055;DHT22;516;51.482;7.120;2023-03-14T10:51:27;7.60;99.90
1055;DHT22;516;51.482;7.120;2023-03-14T10:57:15;7.60;99.90
1055;DHT22;516;51.482;7.120;2023-03-14T11:03:11;7.50;99.90
1055;DHT22;516;51.482;7.120;2023-03-14T11:27:17;7.60;99.90
1055;DHT22;516;51.482;7.120;2023-03-14T11:40:13;7.50;99.90
1055;DHT22;516;51.482;7.120;2023-03-14T11:46:39;7.40;99.90
1055;DHT22;516;51.482;7.120;2023-03-14T11:55:41;7.10;99.90
1055;DHT22;516;51.482;7.120;2023-03-14T12:01:39;6.90;99.90
1055;DHT22;516;51.482;7.120;2023-03-14T12:14:33;6.90;99.90
1055;DHT22;516;51.482;7.120;2023-03-14T12:20:23;7.20;99.90
1055;DHT22;516;51.482;7.120;2023-03-14T12:50:24;8.30;99.90
1055;DHT22;516;51.482;7.120;2023-03-14T12:56:23;8.30;99.90
1055;DHT22;516;51.482;7.120;2023-03-14T13:02:43;7.10;99.90
1055;DHT22;516;51.482;7.120;2023-03-14T13:08:40;6.50;99.90
1055;DHT22;516;51.482;7.120;2023-03-14T13:14:31;6.60;99.90
1055;DHT22;516;51.482;7.120;2023-03-14T13:20:32;7.10;99.90
1055;DHT22;516;51.482;7.120;2023-03-14T13:26:49;7.90;99.90
1055;DHT22;516;51.482;7.120;2023-03-14T13:32:42;7.20;99.90
1055;DHT22;516;51.482;7.120;2023-03-14T13:38:32;7.10;99.90
1055;DHT22;516;51.482;7.120;2023-03-14T13:50:19;7.60;99.90
1055;DHT22;516;51.482;7.120;2023-03-14T13:56:08;9.00;99.90
1055;DHT22;516;51.482;7.120;2023-03-14T14:01:59;12.00;99.90
1055;DHT22;516;51.482;7.120;2023-03-14T14:07:49;13.70;97.30
1055;DHT22;516;51.482;7.120;2023-03-14T14:13:37;13.00;85.00
1055;DHT22;516;51.482;7.120;2023-03-14T14:19:27;10.70;81.40
1055;DHT22;516;51.482;7.120;2023-03-14T14:25:16;9.50;91.40
1055;DHT22;516;51.482;7.120;2023-03-14T14:37:35;11.50;48.50
1055;DHT22;516;51.482;7.120;2023-03-14T14:43:47;12.30;32.10
1055;DHT22;516;51.482;7.120;2023-03-14T14:49:35;12.40;24.30
1055;DHT22;516;51.482;7.120;2023-03-14T14:58:41;12.40;16.40
1055;DHT22;516;51.482;7.120;2023-03-14T15:04:31;13.00;14.00
1055;DHT22;516;51.482;7.120;2023-03-14T15:10:22;10.40;13.60
1055;DHT22;516;51.482;7.120;2023-03-14T15:16:15;9.60;17.20
1055;DHT22;516;51.482;7.120;2023-03-14T15:22:08;9.00;17.20
1055;DHT22;516;51.482;7.120;2023-03-14T15:27:56;9.00;16.90
1055;DHT22;516;51.482;7.120;2023-03-14T15:33:44;9.00;13.70
1055;DHT22;516;51.482;7.120;2023-03-14T15:39:34;8.60;12.70
1055;DHT22;516;51.482;7.120;2023-03-14T15:45:22;8.20;10.40
1055;DHT22;516;51.482;7.120;2023-03-14T15:48:20;7.90;10.80
1055;DHT22;516;51.482;7.120;2023-03-14T15:50:46;7.90;9.80
1055;DHT22;516;51.482;7.120;2023-03-14T15:56:34;7.80;10.40
1055;DHT22;516;51.482;7.120;2023-03-14T16:02:22;7.50;6.70
1055;DHT22;516;51.482;7.120;2023-03-14T16:08:09;7.60;6.30
1055;DHT22;516;51.482;7.120;2023-03-14T16:13:57;7.40;6.50
1055;DHT22;516;51.482;7.120;2023-03-14T16:19:45;7.50;7.20
1055;DHT22;516;51.482;7.120;2023-03-14T16:25:32;8.00;5.50
1055;DHT22;516;51.482;7.120;2023-03-14T16:31:20;7.20;7.40
1055;DHT22;516;51.482;7.120;2023-03-14T16:37:09;7.00;7.70
1055;DHT22;516;51.482;7.120;2023-03-14T16:42:57;6.90;6.50
1055;DHT22;516;51.482;7.120;2023-03-14T16:58:42;6.60;5.70
1055;DHT22;516;51.482;7.120;2023-03-14T17:04:31;6.60;6.00
1055;DHT22;516;51.482;7.120;2023-03-14T17:10:18;6.40;5.90
1055;DHT22;516;51.482;7.120;2023-03-14T17:16:07;6.30;7.30
1055;DHT22;516;51.482;7.120;2023-03-14T17:21:36;6.30;7.60
1055;DHT22;516;51.482;7.120;2023-03-14T17:27:23;6.20;8.40
1055;DHT22;516;51.482;7.120;2023-03-14T17:33:11;6.10;9.00
1055;DHT22;516;51.482;7.120;2023-03-14T17:38:59;6.10;7.20
1055;DHT22;516;51.482;7.120;2023-03-14T17:44:47;5.90;10.10
1055;DHT22;516;51.482;7.120;2023-03-14T17:50:36;5.80;11.10
1055;DHT22;516;51.482;7.120;2023-03-14T17:56:24;5.70;12.00
1055;DHT22;516;51.482;7.120;2023-03-14T18:02:12;5.50;14.70
1055;DHT22;516;51.482;7.120;2023-03-14T18:08:00;5.60;15.40
1055;DHT22;516;51.482;7.120;2023-03-14T18:13:48;5.50;17.00
1055;DHT22;516;51.482;7.120;2023-03-14T18:19:35;5.40;17.90
1055;DHT22;516;51.482;7.120;2023-03-14T18:25:23;5.30;21.00
1055;DHT22;516;51.482;7.120;2023-03-14T18:31:12;5.40;20.90
1055;DHT22;516;51.482;7.120;2023-03-14T18:37:01;5.40;21.00
1055;DHT22;516;51.482;7.120;2023-03-14T18:42:50;5.40;18.60
1055;DHT22;516;51.482;7.120;2023-03-14T18:58:40;5.30;19.20
1055;DHT22;516;51.482;7.120;2023-03-14T19:04:28;5.20;21.80
1055;DHT22;516;51.482;7.120;2023-03-14T19:10:16;5.30;22.70
1055;DHT22;516;51.482;7.120;2023-03-14T19:16:05;5.30;23.60
1055;DHT22;516;51.482;7.120;2023-03-14T19:21:52;5.00;28.80
1055;DHT22;516;51.482;7.120;2023-03-14T19:27:40;5.00;34.60
1055;DHT22;516;51.482;7.120;2023-03-14T19:33:29;4.90;39.60
1055;DHT22;516;51.482;7.120;2023-03-14T19:39:17;5.00;40.90
1055;DHT22;516;51.482;7.120;2023-03-14T19:45:05;5.10;36.80
1055;DHT22;516;51.482;7.120;2023-03-14T19:50:54;5.10;35.80
1055;DHT22;516;51.482;7.120;2023-03-14T19:56:41;5.00;36.10
1055;DHT22;516;51.482;7.120;2023-03-14T20:02:28;4.80;40.20
1055;DHT22;516;51.482;7.120;2023-03-14T20:08:15;4.90;39.10
1055;DHT22;516;51.482;7.120;2023-03-14T20:14:03;4.80;44.10
1055;DHT22;516;51.482;7.120;2023-03-14T20:19:50;4.60;52.30
1055;DHT22;516;51.482;7.120;2023-03-14T20:25:38;4.70;55.40
1055;DHT22;516;51.482;7.120;2023-03-14T20:31:26;4.60;63.30
1055;DHT22;516;51.482;7.120;2023-03-14T20:37:14;4.40;69.30
1055;DHT22;516;51.482;7.120;2023-03-14T20:43:01;4.40;72.60
1055;DHT22;516;51.482;7.120;2023-03-14T20:58:43;4.10;72.10
1055;DHT22;516;51.482;7.120;2023-03-14T21:04:32;4.00;78.70
1055;DHT22;516;51.482;7.120;2023-03-14T21:10:19;4.10;80.70
1055;DHT22;516;51.482;7.120;2023-03-14T21:16:07;4.00;84.60
1055;DHT22;516;51.482;7.120;2023-03-14T21:21:59;4.00;87.50
1055;DHT22;516;51.482;7.120;2023-03-14T21:27:47;3.80;89.10
1055;DHT22;516;51.482;7.120;2023-03-14T21:33:37;3.80;88.60
1055;DHT22;516;51.482;7.120;2023-03-14T21:39:24;3.50;91.30
1055;DHT22;516;51.482;7.120;2023-03-14T21:45:12;3.40;91.60
1055;DHT22;516;51.482;7.120;2023-03-14T21:50:49;3.30;92.40
1055;DHT22;516;51.482;7.120;2023-03-14T21:56:37;3.50;92.10
1055;DHT22;516;51.482;7.120;2023-03-14T22:02:25;3.30;94.20
1055;DHT22;516;51.482;7.120;2023-03-14T22:08:13;3.20;96.50
1055;DHT22;516;51.482;7.120;2023-03-14T22:14:01;3.40;94.80
1055;DHT22;516;51.482;7.120;2023-03-14T22:19:49;3.10;98.60
1055;DHT22;516;51.482;7.120;2023-03-14T22:25:39;3.10;98.90
1055;DHT22;516;51.482;7.120;2023-03-14T22:31:27;3.20;99.20
1055;DHT22;516;51.482;7.120;2023-03-14T22:37:15;3.30;97.20
1055;DHT22;516;51.482;7.120;2023-03-14T22:43:02;3.30;97.60
1055;DHT22;516;51.482;7.120;2023-03-14T22:58:45;3.70;94.40
1055;DHT22;516;51.482;7.120;2023-03-14T23:04:33;3.80;91.80
1055;DHT22;516;51.482;7.120;2023-03-14T23:10:20;4.00;88.20
1055;DHT22;516;51.482;7.120;2023-03-14T23:16:09;4.20;78.50
1055;DHT22;516;51.482;7.120;2023-03-14T23:21:58;4.10;77.10
1055;DHT22;516;51.482;7.120;2023-03-14T23:27:46;4.30;75.70
1055;DHT22;516;51.482;7.120;2023-03-14T23:33:35;4.20;77.20
1055;DHT22;516;51.482;7.120;2023-03-14T23:39:24;4.10;81.20
1055;DHT22;516;51.482;7.120;2023-03-14T23:45:11;4.20;83.40
1055;DHT22;516;51.482;7.120;2023-03-14T23:50:58;4.00;97.90
1055;DHT22;516;51.482;7.120;2023-03-14T23:56:46;3.90;99.90
